Time;durP1;ratioP1;P1;durP2;ratioP2;P2;SDS_P1;SDS_P2;PMS_P1;PMS_P2;Temp;Humidity;BMP_temperature;BMP_pressure;BME280_temperature;BME280_humidity;BME280_pressure;Samples;Min_cycle;Max_cycle;Signal;HPM_P1;HPM_P2
2021/11/29 00:00:13;;;;;;;;;;;3.10;99.90;;;;;;5015443;28;19917;-70
2021/11/29 00:02:42;;;;;;;;;;;3.00;99.90;;;;;;5023265;28;19910;-67
2021/11/29 00:05:08;;;;;;;;;;;3.00;99.90;;;;;;5018339;28;20233;-68
2021/11/29 00:07:33;;;;;;;;;;;3.00;99.90;;;;;;5021991;28;19945;-68
2021/11/29 00:09:59;;;;;;;;;;;2.90;99.90;;;;;;5020332;28;20340;-70
2021/11/29 00:12:24;;;;;;;;;;;3.00;99.90;;;;;;5025512;28;20306;-68
2021/11/29 00:14:50;;;;;;;;;;;3.00;99.90;;;;;;5011548;28;19917;-67
2021/11/29 00:17:16;;;;;;;;;;;3.00;99.90;;;;;;5010432;28;19917;-67
2021/11/29 00:19:42;;;;;;;;;;;3.00;99.90;;;;;;5011391;28;19913;-68
2021/11/29 00:22:07;;;;;;;;;;;3.00;99.90;;;;;;5011711;28;20285;-68
2021/11/29 00:24:33;;;;;;;;;;;3.00;99.90;;;;;;5008505;28;19964;-68
2021/11/29 00:26:58;;;;;;;;;;;3.00;99.90;;;;;;5008036;28;20003;-68
2021/11/29 00:29:24;;;;;;;;;;;3.00;99.90;;;;;;5007545;28;20034;-67
2021/11/29 00:31:49;;;;;;;;;;;2.90;99.90;;;;;;5008716;28;19910;-68
2021/11/29 00:34:15;;;;;;;;;;;3.00;99.90;;;;;;5008737;28;19921;-70
2021/11/29 00:36:40;;;;;;;;;;;3.00;99.90;;;;;;5008704;28;20340;-70
2021/11/29 00:39:06;;;;;;;;;;;3.00;99.90;;;;;;5009337;28;19913;-69
2021/11/29 00:41:31;;;;;;;;;;;2.90;99.90;;;;;;5024740;28;19923;-69
2021/11/29 00:43:57;;;;;;;;;;;2.90;99.90;;;;;;5012603;28;20125;-69
2021/11/29 00:46:22;;;;;;;;;;;2.90;99.90;;;;;;5013520;28;19917;-68
2021/11/29 00:48:48;;;;;;;;;;;2.90;99.90;;;;;;5012162;28;19913;-68
2021/11/29 00:51:13;;;;;;;;;;;3.00;99.90;;;;;;5007702;28;19917;-70
2021/11/29 00:53:39;;;;;;;;;;;3.00;99.90;;;;;;5007537;28;19957;-69
2021/11/29 00:56:04;;;;;;;;;;;3.00;99.90;;;;;;5007507;28;19988;-69
2021/11/29 00:58:30;;;;;;;;;;;2.90;99.90;;;;;;5007891;28;19910;-69
2021/11/29 01:00:57;;;;;;;;;;;2.90;99.90;;;;;;5008345;28;20381;-71
2021/11/29 01:03:22;;;;;;;;;;;2.90;99.90;;;;;;5006869;28;20250;-68
2021/11/29 01:05:47;;;;;;;;;;;3.00;99.90;;;;;;5013212;28;19913;-68
2021/11/29 01:08:13;;;;;;;;;;;3.00;99.90;;;;;;5034361;28;20302;-68
2021/11/29 01:10:39;;;;;;;;;;;3.10;99.90;;;;;;5008731;28;19909;-67
2021/11/29 01:13:04;;;;;;;;;;;3.20;99.90;;;;;;5014285;28;19917;-69
2021/11/29 01:15:32;;;;;;;;;;;3.10;99.90;;;;;;5019514;28;19921;-68
2021/11/29 01:17:57;;;;;;;;;;;2.90;99.90;;;;;;5024091;28;19910;-68
2021/11/29 01:20:23;;;;;;;;;;;2.80;99.90;;;;;;5007723;28;19925;-67
2021/11/29 01:22:49;;;;;;;;;;;2.90;99.90;;;;;;5006482;28;19910;-70
2021/11/29 01:25:14;;;;;;;;;;;2.90;99.90;;;;;;5021362;28;20416;-68
2021/11/29 01:27:40;;;;;;;;;;;3.00;99.90;;;;;;5022611;28;19909;-70
2021/11/29 01:30:06;;;;;;;;;;;2.90;99.90;;;;;;5006762;28;20339;-70
2021/11/29 01:32:32;;;;;;;;;;;2.70;99.90;;;;;;5008257;28;19928;-72
2021/11/29 01:34:57;;;;;;;;;;;2.60;99.90;;;;;;5007354;28;20228;-71
2021/11/29 01:37:23;;;;;;;;;;;2.60;99.90;;;;;;5007986;28;19944;-69
2021/11/29 01:39:48;;;;;;;;;;;2.50;99.90;;;;;;5007640;28;20483;-70
2021/11/29 01:42:14;;;;;;;;;;;2.50;99.90;;;;;;5011760;28;19909;-70
2021/11/29 01:44:39;;;;;;;;;;;2.50;99.90;;;;;;5029356;28;19917;-73
2021/11/29 01:47:05;;;;;;;;;;;2.60;99.90;;;;;;5034503;28;20507;-72
2021/11/29 01:49:30;;;;;;;;;;;2.70;99.90;;;;;;5010661;28;20321;-72
2021/11/29 01:51:56;;;;;;;;;;;2.80;99.90;;;;;;5006681;28;19945;-73
2021/11/29 01:54:22;;;;;;;;;;;2.80;99.90;;;;;;5006298;28;19913;-73
2021/11/29 01:56:48;;;;;;;;;;;2.80;99.90;;;;;;5006575;28;20392;-74
2021/11/29 01:59:13;;;;;;;;;;;2.70;99.90;;;;;;5013867;28;19913;-71
2021/11/29 02:01:39;;;;;;;;;;;2.60;99.90;;;;;;5007091;28;19953;-72
2021/11/29 02:04:05;;;;;;;;;;;2.70;99.90;;;;;;5006369;28;20402;-72
2021/11/29 02:06:31;;;;;;;;;;;2.60;99.90;;;;;;5012370;28;19960;-70
2021/11/29 02:08:57;;;;;;;;;;;2.60;99.90;;;;;;5026799;28;19916;-71
2021/11/29 02:11:23;;;;;;;;;;;2.50;99.90;;;;;;5027489;28;20202;-70
2021/11/29 02:13:49;;;;;;;;;;;2.50;99.90;;;;;;5017096;28;19959;-71
2021/11/29 02:16:15;;;;;;;;;;;2.40;99.90;;;;;;5011498;28;20406;-71
2021/11/29 02:18:41;;;;;;;;;;;2.40;99.90;;;;;;5010978;28;19964;-68
2021/11/29 02:21:08;;;;;;;;;;;2.40;99.90;;;;;;5012623;28;20609;-70
2021/11/29 02:23:34;;;;;;;;;;;2.40;99.90;;;;;;5024181;28;19985;-70
2021/11/29 02:26:00;;;;;;;;;;;2.40;99.90;;;;;;5025853;28;19913;-70
2021/11/29 02:28:26;;;;;;;;;;;2.40;99.90;;;;;;5025649;28;20005;-67
2021/11/29 02:30:51;;;;;;;;;;;2.40;99.90;;;;;;5021259;28;20369;-65
2021/11/29 02:33:17;;;;;;;;;;;2.50;99.90;;;;;;5023660;28;20057;-64
2021/11/29 02:35:42;;;;;;;;;;;2.50;99.90;;;;;;5018284;28;19949;-63
2021/11/29 02:38:08;;;;;;;;;;;2.50;99.90;;;;;;5042225;28;19936;-61
2021/11/29 02:40:33;;;;;;;;;;;2.50;99.90;;;;;;5016331;28;19913;-62
2021/11/29 02:42:59;;;;;;;;;;;2.50;99.90;;;;;;5025192;28;19917;-62
2021/11/29 02:45:25;;;;;;;;;;;2.60;99.90;;;;;;5023506;28;19936;-63
2021/11/29 02:47:50;;;;;;;;;;;2.60;99.90;;;;;;5008697;28;20370;-62
2021/11/29 02:50:16;;;;;;;;;;;2.60;99.90;;;;;;5017115;28;19929;-63
2021/11/29 02:52:42;;;;;;;;;;;2.60;99.90;;;;;;5009260;28;20336;-64
2021/11/29 02:55:08;;;;;;;;;;;2.70;99.90;;;;;;5009004;28;19948;-62
2021/11/29 02:57:34;;;;;;;;;;;2.70;99.90;;;;;;5008294;28;20352;-63
2021/11/29 02:59:59;;;;;;;;;;;2.70;99.90;;;;;;5008903;28;19922;-63
2021/11/29 03:02:26;;;;;;;;;;;2.70;99.90;;;;;;5007347;28;19917;-63
2021/11/29 03:04:52;;;;;;;;;;;2.70;99.90;;;;;;5014070;28;19917;-62
2021/11/29 03:07:18;;;;;;;;;;;2.70;99.90;;;;;;5023261;28;19940;-61
2021/11/29 03:09:44;;;;;;;;;;;2.70;99.90;;;;;;5010150;28;20028;-60
2021/11/29 03:12:09;;;;;;;;;;;2.60;99.90;;;;;;5009151;28;19921;-61
2021/11/29 03:14:35;;;;;;;;;;;2.50;99.90;;;;;;5009416;28;19913;-61
2021/11/29 03:17:01;;;;;;;;;;;2.50;99.90;;;;;;5008311;28;19956;-62
2021/11/29 03:19:31;;;;;;;;;;;2.50;99.90;;;;;;5008404;28;20238;-61
2021/11/29 03:21:57;;;;;;;;;;;2.40;99.90;;;;;;5022782;28;20129;-62
2021/11/29 03:24:23;;;;;;;;;;;2.50;99.90;;;;;;5022777;28;19920;-60
2021/11/29 03:26:48;;;;;;;;;;;2.60;99.90;;;;;;5015190;28;20619;-61
2021/11/29 03:29:17;;;;;;;;;;;2.60;99.90;;;;;;5015421;28;19918;-60
2021/11/29 03:31:43;;;;;;;;;;;2.60;99.90;;;;;;5010860;28;19944;-63
2021/11/29 03:34:10;;;;;;;;;;;2.60;99.90;;;;;;5011977;28;19909;-62
2021/11/29 03:36:37;;;;;;;;;;;2.60;99.90;;;;;;5007761;28;19964;-61
2021/11/29 03:39:04;;;;;;;;;;;2.70;99.90;;;;;;5007392;28;20193;-62
2021/11/29 03:41:29;;;;;;;;;;;2.70;99.90;;;;;;5022726;28;20386;-62
2021/11/29 03:43:55;;;;;;;;;;;2.70;99.90;;;;;;5008001;28;19924;-62
2021/11/29 03:46:20;;;;;;;;;;;2.70;99.90;;;;;;5006541;28;20224;-62
2021/11/29 03:48:46;;;;;;;;;;;2.70;99.90;;;;;;5007858;28;19917;-61
2021/11/29 03:51:11;;;;;;;;;;;2.80;99.90;;;;;;5009429;28;20424;-62
2021/11/29 03:53:37;;;;;;;;;;;2.60;99.90;;;;;;5008404;28;19914;-60
2021/11/29 03:56:03;;;;;;;;;;;2.60;99.90;;;;;;5009079;28;20402;-63
2021/11/29 03:58:28;;;;;;;;;;;2.60;99.90;;;;;;5008937;28;19917;-63
2021/11/29 04:00:54;;;;;;;;;;;2.60;99.90;;;;;;5008467;28;19917;-62
2021/11/29 04:03:20;;;;;;;;;;;2.60;99.90;;;;;;5006509;28;19917;-64
2021/11/29 04:05:46;;;;;;;;;;;2.70;99.90;;;;;;5008502;28;19917;-63
2021/11/29 04:08:11;;;;;;;;;;;2.70;99.90;;;;;;5018547;28;20063;-62
2021/11/29 04:10:37;;;;;;;;;;;2.70;99.90;;;;;;5009444;28;19932;-64
2021/11/29 04:13:02;;;;;;;;;;;2.80;99.90;;;;;;5007832;28;20008;-64
2021/11/29 04:15:28;;;;;;;;;;;2.80;99.90;;;;;;5007709;28;19914;-62
2021/11/29 04:17:53;;;;;;;;;;;2.80;99.90;;;;;;5007430;28;19953;-62
2021/11/29 04:20:19;;;;;;;;;;;2.80;99.90;;;;;;5012650;28;19928;-63
2021/11/29 04:22:45;;;;;;;;;;;2.80;99.90;;;;;;5019076;28;19914;-62
2021/11/29 04:25:16;;;;;;;;;;;2.80;99.90;;;;;;5019894;28;19917;-61
2021/11/29 04:27:43;;;;;;;;;;;2.80;99.90;;;;;;5013865;28;19964;-63
2021/11/29 04:30:16;;;;;;;;;;;2.80;99.90;;;;;;5009522;28;19914;-64
2021/11/29 04:32:42;;;;;;;;;;;2.80;99.90;;;;;;5012699;28;19964;-63
2021/11/29 04:35:08;;;;;;;;;;;2.90;99.90;;;;;;5008486;28;19921;-64
2021/11/29 04:37:34;;;;;;;;;;;2.90;99.90;;;;;;5012824;28;19909;-67
2021/11/29 04:39:59;;;;;;;;;;;2.90;99.90;;;;;;5013580;28;20349;-64
2021/11/29 04:42:25;;;;;;;;;;;2.90;99.90;;;;;;5021335;28;19917;-64
2021/11/29 04:44:50;;;;;;;;;;;2.90;99.90;;;;;;5006997;28;19914;-64
2021/11/29 04:47:16;;;;;;;;;;;3.00;99.90;;;;;;5007474;28;19913;-65
2021/11/29 04:49:41;;;;;;;;;;;3.00;99.90;;;;;;5007626;28;20282;-64
2021/11/29 04:52:07;;;;;;;;;;;3.10;99.90;;;;;;5007628;28;19914;-64
2021/11/29 04:54:32;;;;;;;;;;;3.00;99.90;;;;;;5007926;28;20011;-65
2021/11/29 04:56:58;;;;;;;;;;;2.80;99.90;;;;;;5006830;28;19910;-64
2021/11/29 04:59:23;;;;;;;;;;;2.70;99.90;;;;;;5005443;28;19913;-64
2021/11/29 05:01:48;;;;;;;;;;;2.70;99.90;;;;;;4994906;28;20110;-64
2021/11/29 05:04:14;;;;;;;;;;;2.70;99.90;;;;;;5008266;28;19921;-64
2021/11/29 05:06:39;;;;;;;;;;;2.70;99.90;;;;;;5007631;28;19910;-67
2021/11/29 05:09:06;;;;;;;;;;;2.70;99.90;;;;;;5009078;28;19921;-70
2021/11/29 05:11:32;;;;;;;;;;;2.70;99.90;;;;;;5015681;28;20409;-71
2021/11/29 05:13:57;;;;;;;;;;;3.00;99.90;;;;;;5029886;28;19917;-72
2021/11/29 05:16:23;;;;;;;;;;;3.40;99.90;;;;;;5014505;28;19917;-69
2021/11/29 05:18:49;;;;;;;;;;;3.50;99.90;;;;;;5009537;28;19924;-70
2021/11/29 05:21:14;;;;;;;;;;;3.50;99.90;;;;;;5008188;28;19913;-67
2021/11/29 05:23:40;;;;;;;;;;;3.40;99.90;;;;;;5006641;28;19914;-70
2021/11/29 05:26:05;;;;;;;;;;;3.40;99.90;;;;;;5006735;28;19956;-70
2021/11/29 05:28:30;;;;;;;;;;;3.40;99.90;;;;;;5007571;28;19967;-69
2021/11/29 05:30:56;;;;;;;;;;;3.40;99.90;;;;;;5008258;28;20444;-69
2021/11/29 05:33:21;;;;;;;;;;;3.40;99.90;;;;;;5007822;28;19917;-70
2021/11/29 05:35:47;;;;;;;;;;;3.50;99.90;;;;;;5007298;28;20436;-70
2021/11/29 05:38:12;;;;;;;;;;;3.40;99.90;;;;;;5022184;28;20310;-70
2021/11/29 05:40:38;;;;;;;;;;;3.30;99.90;;;;;;5015516;28;19928;-73
2021/11/29 05:43:03;;;;;;;;;;;3.20;99.90;;;;;;5016250;28;19913;-69
2021/11/29 05:45:29;;;;;;;;;;;3.10;99.90;;;;;;5007372;28;19924;-70
2021/11/29 05:47:54;;;;;;;;;;;3.10;99.90;;;;;;5005182;28;20393;-70
2021/11/29 05:50:20;;;;;;;;;;;3.10;99.90;;;;;;5009054;28;19910;-71
2021/11/29 05:52:46;;;;;;;;;;;3.00;99.90;;;;;;5009887;28;19940;-71
2021/11/29 05:55:12;;;;;;;;;;;3.10;99.90;;;;;;5010322;28;19920;-71
2021/11/29 05:57:38;;;;;;;;;;;3.20;99.90;;;;;;5010646;28;20584;-72
2021/11/29 06:00:07;;;;;;;;;;;3.20;99.90;;;;;;5015800;28;19921;-71
2021/11/29 06:02:33;;;;;;;;;;;3.30;99.90;;;;;;5008739;28;19914;-72
2021/11/29 06:04:59;;;;;;;;;;;3.30;99.90;;;;;;5011332;28;19924;-71
2021/11/29 06:07:24;;;;;;;;;;;3.30;99.90;;;;;;5016599;28;20428;-70
2021/11/29 06:09:50;;;;;;;;;;;3.30;99.90;;;;;;5011353;28;20270;-71
2021/11/29 06:12:16;;;;;;;;;;;3.20;99.90;;;;;;5011378;28;20271;-72
2021/11/29 06:14:42;;;;;;;;;;;3.10;99.90;;;;;;5010644;28;19968;-72
2021/11/29 06:17:07;;;;;;;;;;;3.10;99.90;;;;;;5023734;28;19925;-69
2021/11/29 06:19:33;;;;;;;;;;;3.00;99.90;;;;;;5005196;28;20217;-71
2021/11/29 06:21:58;;;;;;;;;;;3.00;99.90;;;;;;5004030;28;20396;-71
2021/11/29 06:24:24;;;;;;;;;;;3.10;99.90;;;;;;5004789;28;20028;-70
2021/11/29 06:26:49;;;;;;;;;;;3.30;99.90;;;;;;5008092;28;19965;-71
2021/11/29 06:29:15;;;;;;;;;;;3.40;99.90;;;;;;5009648;28;19944;-73
2021/11/29 06:31:41;;;;;;;;;;;3.50;99.90;;;;;;5017299;28;19909;-71
2021/11/29 06:34:07;;;;;;;;;;;3.50;99.90;;;;;;5011381;28;19913;-71
2021/11/29 06:36:32;;;;;;;;;;;3.50;99.90;;;;;;5014704;28;19917;-70
2021/11/29 06:38:58;;;;;;;;;;;3.50;99.90;;;;;;5025183;28;20455;-69
2021/11/29 06:41:24;;;;;;;;;;;3.50;99.90;;;;;;5016614;28;19913;-70
2021/11/29 06:43:50;;;;;;;;;;;3.50;99.90;;;;;;5012365;28;19992;-71
2021/11/29 06:46:15;;;;;;;;;;;3.50;99.90;;;;;;5012195;28;19917;-70
2021/11/29 06:48:41;;;;;;;;;;;3.60;99.90;;;;;;5014128;28;20586;-70
2021/11/29 06:51:06;;;;;;;;;;;3.60;99.90;;;;;;5012775;28;19914;-68
2021/11/29 06:53:33;;;;;;;;;;;3.60;99.90;;;;;;5033529;28;19917;-67
2021/11/29 06:55:59;;;;;;;;;;;3.70;99.90;;;;;;5024069;28;20206;-71
2021/11/29 06:58:24;;;;;;;;;;;3.80;99.90;;;;;;5027026;28;20473;-69
2021/11/29 07:00:50;;;;;;;;;;;3.90;99.90;;;;;;5010137;28;20012;-71
2021/11/29 07:03:15;;;;;;;;;;;3.90;99.90;;;;;;5012153;28;20124;-69
2021/11/29 07:05:41;;;;;;;;;;;3.90;99.90;;;;;;5041656;28;19933;-69
2021/11/29 07:08:08;;;;;;;;;;;3.90;99.90;;;;;;5042101;28;20028;-68
2021/11/29 07:10:34;;;;;;;;;;;3.90;99.90;;;;;;5033785;28;20003;-69
2021/11/29 07:12:59;;;;;;;;;;;3.90;99.90;;;;;;5021122;28;19910;-68
2021/11/29 07:15:26;;;;;;;;;;;3.90;99.90;;;;;;5018480;28;19910;-69
2021/11/29 07:17:52;;;;;;;;;;;3.80;99.90;;;;;;5011638;28;19937;-71
2021/11/29 07:20:17;;;;;;;;;;;3.80;99.90;;;;;;5012673;28;19913;-70
2021/11/29 07:22:43;;;;;;;;;;;3.80;99.90;;;;;;5012088;28;19917;-69
2021/11/29 07:25:09;;;;;;;;;;;3.80;99.90;;;;;;5010760;28;20012;-68
2021/11/29 07:27:34;;;;;;;;;;;3.80;99.90;;;;;;5010718;28;19941;-69
2021/11/29 07:30:02;;;;;;;;;;;3.90;99.90;;;;;;5010681;28;19949;-70
2021/11/29 07:32:31;;;;;;;;;;;4.00;99.90;;;;;;5010866;28;19971;-71
2021/11/29 07:34:57;;;;;;;;;;;4.10;99.90;;;;;;5011344;28;19914;-68
2021/11/29 07:37:22;;;;;;;;;;;4.10;99.90;;;;;;5010601;28;20310;-69
2021/11/29 07:39:48;;;;;;;;;;;4.20;99.90;;;;;;5008780;28;19952;-69
2021/11/29 07:42:15;;;;;;;;;;;4.20;99.90;;;;;;5017054;28;20463;-71
2021/11/29 07:44:40;;;;;;;;;;;4.20;99.90;;;;;;5020642;28;19921;-70
2021/11/29 07:47:06;;;;;;;;;;;4.20;99.90;;;;;;5023394;28;19975;-72
2021/11/29 07:49:31;;;;;;;;;;;4.20;99.90;;;;;;5029754;28;19959;-70
2021/11/29 07:51:57;;;;;;;;;;;4.30;99.90;;;;;;5013537;28;19916;-70
2021/11/29 07:54:23;;;;;;;;;;;4.30;99.90;;;;;;5010230;28;19909;-70
2021/11/29 07:56:48;;;;;;;;;;;4.30;99.90;;;;;;5010745;28;19913;-69
2021/11/29 07:59:14;;;;;;;;;;;4.30;99.90;;;;;;5010164;28;19913;-69
2021/11/29 08:01:39;;;;;;;;;;;4.40;99.90;;;;;;5010382;28;19952;-71
2021/11/29 08:04:05;;;;;;;;;;;4.50;99.90;;;;;;5030656;28;19909;-67
2021/11/29 08:06:30;;;;;;;;;;;4.50;99.90;;;;;;5040556;28;19915;-68
2021/11/29 08:08:56;;;;;;;;;;;4.60;99.90;;;;;;5027226;28;21014;-71
2021/11/29 08:11:22;;;;;;;;;;;4.50;99.90;;;;;;5026316;28;19931;-69
2021/11/29 08:13:48;;;;;;;;;;;4.50;99.90;;;;;;5012141;28;19909;-69
2021/11/29 08:16:13;;;;;;;;;;;4.40;99.90;;;;;;5007572;28;19909;-70
2021/11/29 08:18:39;;;;;;;;;;;4.40;99.90;;;;;;5010116;28;19949;-69
2021/11/29 08:21:05;;;;;;;;;;;4.50;99.90;;;;;;5028092;28;19919;-69
2021/11/29 08:23:30;;;;;;;;;;;4.50;99.90;;;;;;5009762;28;19913;-70
2021/11/29 08:25:56;;;;;;;;;;;4.50;99.90;;;;;;5006085;28;19909;-71
2021/11/29 08:28:21;;;;;;;;;;;4.30;99.90;;;;;;5005956;28;20640;-68
2021/11/29 08:30:48;;;;;;;;;;;4.20;99.90;;;;;;5011124;28;19912;-69
2021/11/29 08:33:13;;;;;;;;;;;4.20;99.90;;;;;;5016819;28;19929;-68
2021/11/29 08:35:39;;;;;;;;;;;4.20;99.90;;;;;;5017135;28;19910;-68
2021/11/29 08:38:05;;;;;;;;;;;4.20;99.90;;;;;;5010113;28;19959;-69
2021/11/29 08:40:33;;;;;;;;;;;4.10;99.90;;;;;;5017859;28;20384;-69
2021/11/29 08:43:01;;;;;;;;;;;4.10;99.90;;;;;;5029632;28;20051;-68
2021/11/29 08:45:26;;;;;;;;;;;4.20;99.90;;;;;;5028710;28;20122;-69
2021/11/29 08:47:52;;;;;;;;;;;4.20;99.90;;;;;;5004982;28;20239;-69
2021/11/29 08:50:18;;;;;;;;;;;4.40;99.90;;;;;;5016313;28;20114;-69
2021/11/29 08:52:44;;;;;;;;;;;4.50;99.90;;;;;;5010369;28;19924;-68
2021/11/29 08:55:10;;;;;;;;;;;4.60;99.90;;;;;;5015843;28;19909;-69
2021/11/29 08:57:36;;;;;;;;;;;4.60;99.90;;;;;;5017757;28;20103;-68
2021/11/29 09:00:04;;;;;;;;;;;4.50;99.90;;;;;;5005574;28;19914;-69
2021/11/29 09:02:30;;;;;;;;;;;4.60;99.90;;;;;;5004404;28;20421;-69
2021/11/29 09:04:55;;;;;;;;;;;4.60;99.90;;;;;;5009405;28;20000;-67
2021/11/29 09:07:21;;;;;;;;;;;4.60;99.90;;;;;;5008435;28;19932;-66
2021/11/29 09:09:46;;;;;;;;;;;4.50;99.90;;;;;;5008444;28;19913;-64
2021/11/29 09:12:14;;;;;;;;;;;4.40;99.90;;;;;;5002797;28;19968;-65
2021/11/29 09:14:39;;;;;;;;;;;4.50;99.90;;;;;;5011346;28;19917;-65
2021/11/29 09:17:05;;;;;;;;;;;4.50;99.90;;;;;;5014333;28;19913;-65
2021/11/29 09:19:31;;;;;;;;;;;4.50;99.90;;;;;;5008263;28;19944;-67
2021/11/29 09:21:57;;;;;;;;;;;4.50;99.90;;;;;;5008920;28;19918;-64
2021/11/29 09:24:22;;;;;;;;;;;4.60;99.90;;;;;;5010668;28;20127;-69
2021/11/29 09:26:48;;;;;;;;;;;4.70;99.90;;;;;;5011344;28;19909;-66
2021/11/29 09:29:13;;;;;;;;;;;4.70;99.90;;;;;;5009288;28;19952;-68
2021/11/29 09:31:39;;;;;;;;;;;4.70;99.90;;;;;;4997931;28;19914;-67
2021/11/29 09:34:04;;;;;;;;;;;4.60;99.90;;;;;;5010513;28;19909;-68
2021/11/29 09:36:30;;;;;;;;;;;4.60;99.90;;;;;;5010651;28;20386;-65
2021/11/29 09:38:55;;;;;;;;;;;4.70;99.90;;;;;;5000510;28;19914;-66
2021/11/29 09:41:24;;;;;;;;;;;4.70;99.90;;;;;;5006477;28;19924;-67
2021/11/29 09:43:50;;;;;;;;;;;4.70;99.90;;;;;;5006042;28;19910;-67
2021/11/29 09:46:15;;;;;;;;;;;4.70;99.90;;;;;;5005748;28;20386;-68
2021/11/29 09:48:41;;;;;;;;;;;4.70;99.90;;;;;;5010582;28;19910;-65
2021/11/29 09:51:06;;;;;;;;;;;4.80;99.90;;;;;;5009526;28;19913;-68
2021/11/29 09:53:32;;;;;;;;;;;4.80;99.90;;;;;;5018239;28;19913;-69
2021/11/29 09:56:00;;;;;;;;;;;4.90;99.90;;;;;;5028294;28;19909;-68
2021/11/29 09:58:26;;;;;;;;;;;5.00;99.90;;;;;;5028066;28;19913;-68
2021/11/29 10:00:53;;;;;;;;;;;5.00;99.90;;;;;;5028139;28;19940;-67
2021/11/29 10:03:18;;;;;;;;;;;5.00;99.90;;;;;;5029442;28;19936;-69
2021/11/29 10:05:44;;;;;;;;;;;5.10;99.90;;;;;;5008044;28;20362;-69
2021/11/29 10:08:16;;;;;;;;;;;5.00;99.90;;;;;;5013596;28;19917;-69
2021/11/29 10:10:45;;;;;;;;;;;5.20;99.90;;;;;;5023206;28;20278;-70
2021/11/29 10:13:10;;;;;;;;;;;5.30;99.90;;;;;;5008883;28;20369;-69
2021/11/29 10:15:40;;;;;;;;;;;5.40;99.90;;;;;;5007964;28;19952;-69
2021/11/29 10:18:09;;;;;;;;;;;5.40;99.90;;;;;;5008487;28;20240;-69
2021/11/29 10:20:53;;;;;;;;;;;5.50;99.90;;;;;;5021575;28;19913;-68
2021/11/29 10:23:33;;;;;;;;;;;5.60;99.90;;;;;;5004473;28;19910;-70
2021/11/29 10:26:00;;;;;;;;;;;5.70;99.90;;;;;;5005208;28;20367;-69
2021/11/29 10:28:28;;;;;;;;;;;5.70;99.90;;;;;;5007085;28;19917;-69
2021/11/29 10:31:23;;;;;;;;;;;5.60;99.90;;;;;;5006998;28;19946;-70
2021/11/29 10:33:54;;;;;;;;;;;5.60;99.90;;;;;;4996836;28;19909;-70
2021/11/29 10:36:20;;;;;;;;;;;5.60;99.90;;;;;;5007556;28;20333;-69
2021/11/29 10:38:49;;;;;;;;;;;5.50;99.90;;;;;;5021687;28;19909;-68
2021/11/29 10:41:18;;;;;;;;;;;5.60;99.90;;;;;;5025580;28;19917;-70
2021/11/29 10:43:44;;;;;;;;;;;5.40;99.90;;;;;;5032087;28;19954;-69
2021/11/29 10:46:45;;;;;;;;;;;5.30;99.90;;;;;;5033194;28;20012;-70
2021/11/29 10:49:14;;;;;;;;;;;5.30;99.90;;;;;;4976925;28;20513;-69
2021/11/29 10:51:43;;;;;;;;;;;5.20;99.90;;;;;;5018312;28;19921;-70
2021/11/29 10:54:10;;;;;;;;;;;5.20;99.90;;;;;;5030537;28;19908;-69
2021/11/29 10:56:38;;;;;;;;;;;5.20;99.90;;;;;;5027313;28;19989;-70
2021/11/29 10:59:05;;;;;;;;;;;5.20;99.90;;;;;;5019931;28;19983;-71
2021/11/29 11:01:42;;;;;;;;;;;5.20;99.90;;;;;;5014533;28;20328;-68
2021/11/29 11:04:12;;;;;;;;;;;5.20;99.90;;;;;;5016223;28;19960;-68
2021/11/29 11:06:39;;;;;;;;;;;5.10;99.90;;;;;;5020063;28;19915;-70
2021/11/29 11:09:15;;;;;;;;;;;5.00;99.90;;;;;;5031549;28;19913;-71
2021/11/29 11:11:43;;;;;;;;;;;4.90;99.90;;;;;;5029418;28;19999;-69
2021/11/29 11:14:13;;;;;;;;;;;4.80;99.90;;;;;;5017109;28;19913;-68
2021/11/29 11:16:44;;;;;;;;;;;4.70;99.90;;;;;;5018416;28;19928;-69
2021/11/29 11:19:10;;;;;;;;;;;4.70;99.90;;;;;;5010339;28;19924;-67
2021/11/29 11:21:36;;;;;;;;;;;4.70;99.90;;;;;;5008214;28;19913;-66
2021/11/29 11:24:17;;;;;;;;;;;4.80;99.90;;;;;;5010812;28;19913;-69
2021/11/29 11:26:44;;;;;;;;;;;4.90;99.90;;;;;;5010623;28;20350;-68
2021/11/29 11:29:11;;;;;;;;;;;5.00;99.90;;;;;;5015852;28;20229;-68
2021/11/29 11:31:37;;;;;;;;;;;5.10;99.90;;;;;;5026116;28;19929;-67
2021/11/29 11:34:02;;;;;;;;;;;5.10;99.90;;;;;;5012492;28;19909;-69
2021/11/29 11:36:28;;;;;;;;;;;5.20;99.90;;;;;;5011895;28;19913;-67
2021/11/29 11:38:54;;;;;;;;;;;5.30;99.90;;;;;;5011719;28;19910;-68
2021/11/29 11:41:20;;;;;;;;;;;5.30;99.90;;;;;;5025700;28;20019;-71
2021/11/29 11:43:46;;;;;;;;;;;5.30;99.90;;;;;;5032530;28;19975;-71
2021/11/29 11:46:11;;;;;;;;;;;5.30;99.90;;;;;;5047847;28;19913;-67
2021/11/29 11:48:37;;;;;;;;;;;5.20;99.90;;;;;;5051453;28;19923;-67
2021/11/29 11:51:02;;;;;;;;;;;5.20;99.90;;;;;;5043106;28;19910;-69
2021/11/29 11:53:28;;;;;;;;;;;5.10;99.90;;;;;;5023027;28;19909;-66
2021/11/29 11:55:53;;;;;;;;;;;5.10;99.90;;;;;;5011078;28;20584;-65
2021/11/29 11:58:20;;;;;;;;;;;5.00;99.90;;;;;;5008990;28;20157;-62
2021/11/29 12:00:46;;;;;;;;;;;4.90;99.90;;;;;;5009051;28;19921;-63
2021/11/29 12:03:17;;;;;;;;;;;4.90;99.90;;;;;;5024767;28;19914;-62
2021/11/29 12:05:51;;;;;;;;;;;4.80;99.90;;;;;;5009209;28;20051;-62
2021/11/29 12:08:38;;;;;;;;;;;4.80;99.90;;;;;;5032660;28;19918;-61
2021/11/29 12:11:05;;;;;;;;;;;4.80;99.90;;;;;;5005389;28;20118;-62
2021/11/29 12:13:49;;;;;;;;;;;4.90;99.90;;;;;;5008656;28;20012;-62
2021/11/29 12:16:28;;;;;;;;;;;4.80;99.90;;;;;;5011004;28;20297;-62
2021/11/29 12:18:54;;;;;;;;;;;4.80;99.90;;;;;;5014883;28;19913;-62
2021/11/29 12:21:27;;;;;;;;;;;4.80;99.90;;;;;;5008657;28;19920;-62
2021/11/29 12:24:01;;;;;;;;;;;4.90;99.90;;;;;;5009323;28;19968;-62
2021/11/29 12:26:48;;;;;;;;;;;4.90;99.90;;;;;;5008978;28;19913;-63
2021/11/29 12:29:20;;;;;;;;;;;5.10;99.90;;;;;;5023438;28;19910;-61
2021/11/29 12:31:46;;;;;;;;;;;5.10;99.90;;;;;;5002428;28;19964;-61
2021/11/29 12:34:11;;;;;;;;;;;5.30;99.90;;;;;;4989802;28;19910;-61
2021/11/29 12:36:52;;;;;;;;;;;5.30;99.90;;;;;;4991920;28;19949;-62
2021/11/29 12:39:36;;;;;;;;;;;5.40;99.90;;;;;;5006297;28;19997;-61
2021/11/29 12:42:02;;;;;;;;;;;5.40;99.90;;;;;;4999611;28;19936;-61
2021/11/29 12:44:47;;;;;;;;;;;5.30;99.90;;;;;;5008550;28;20325;-61
2021/11/29 12:47:16;;;;;;;;;;;5.30;99.90;;;;;;5009486;28;20225;-62
2021/11/29 12:49:42;;;;;;;;;;;5.30;99.90;;;;;;5007575;28;19918;-60
2021/11/29 12:52:07;;;;;;;;;;;5.30;99.90;;;;;;5006862;28;20126;-61
2021/11/29 12:54:38;;;;;;;;;;;5.30;99.90;;;;;;5007571;28;20209;-60
2021/11/29 12:57:22;;;;;;;;;;;5.30;99.90;;;;;;5008342;28;19917;-62
2021/11/29 12:59:49;;;;;;;;;;;5.30;99.90;;;;;;5008293;28;19918;-62
2021/11/29 13:02:33;;;;;;;;;;;5.30;99.90;;;;;;5009631;28;19976;-61
2021/11/29 13:04:59;;;;;;;;;;;5.40;99.90;;;;;;5010585;28;20016;-63
2021/11/29 13:07:24;;;;;;;;;;;5.40;99.90;;;;;;5020879;28;20000;-62
2021/11/29 13:09:50;;;;;;;;;;;5.40;99.90;;;;;;5025157;28;19910;-63
2021/11/29 13:12:16;;;;;;;;;;;5.40;99.90;;;;;;5008807;28;19913;-64
2021/11/29 13:14:42;;;;;;;;;;;5.50;99.90;;;;;;5028015;28;19909;-64
2021/11/29 13:17:07;;;;;;;;;;;5.50;99.90;;;;;;5029119;28;19920;-63
2021/11/29 13:19:40;;;;;;;;;;;5.50;99.90;;;;;;5027828;28;19920;-61
2021/11/29 13:22:08;;;;;;;;;;;5.60;99.90;;;;;;5028099;28;19917;-62
2021/11/29 13:24:38;;;;;;;;;;;5.60;99.90;;;;;;5027758;28;19909;-64
2021/11/29 13:27:05;;;;;;;;;;;5.60;99.90;;;;;;5027810;28;19913;-62
2021/11/29 13:29:33;;;;;;;;;;;5.70;99.90;;;;;;5029474;28;19920;-62
2021/11/29 13:32:00;;;;;;;;;;;5.70;99.90;;;;;;5022546;28;19924;-63
2021/11/29 13:34:30;;;;;;;;;;;5.70;99.90;;;;;;5009828;28;20397;-64
2021/11/29 13:36:56;;;;;;;;;;;5.70;99.90;;;;;;5011104;28;19909;-63
2021/11/29 13:39:26;;;;;;;;;;;5.80;99.90;;;;;;5011937;28;19953;-62
2021/11/29 13:42:15;;;;;;;;;;;5.90;99.90;;;;;;5030641;28;20232;-64
2021/11/29 13:44:45;;;;;;;;;;;5.80;99.90;;;;;;5021914;28;19909;-63
2021/11/29 13:47:10;;;;;;;;;;;5.80;99.90;;;;;;5016068;28;19913;-66
2021/11/29 13:49:36;;;;;;;;;;;5.90;99.90;;;;;;5004832;28;19914;-63
2021/11/29 13:52:03;;;;;;;;;;;5.80;99.90;;;;;;4997991;28;20473;-64
2021/11/29 13:54:28;;;;;;;;;;;5.80;99.90;;;;;;5005654;28;19932;-65
2021/11/29 13:56:54;;;;;;;;;;;5.80;99.90;;;;;;5005922;28;19913;-67
2021/11/29 13:59:19;;;;;;;;;;;5.80;99.90;;;;;;5015792;28;20010;-64
2021/11/29 14:01:45;;;;;;;;;;;5.80;99.90;;;;;;5023387;28;19913;-65
2021/11/29 14:04:10;;;;;;;;;;;5.80;99.90;;;;;;5008802;28;19980;-66
2021/11/29 14:06:36;;;;;;;;;;;5.80;99.90;;;;;;5017379;28;20379;-66
2021/11/29 14:09:02;;;;;;;;;;;5.80;99.90;;;;;;5029327;28;19968;-69
2021/11/29 14:11:29;;;;;;;;;;;5.80;99.90;;;;;;5033398;28;19913;-69
2021/11/29 14:14:01;;;;;;;;;;;5.80;99.90;;;;;;4992465;28;19920;-71
2021/11/29 14:16:40;;;;;;;;;;;5.80;99.90;;;;;;4998211;28;19978;-70
2021/11/29 14:19:07;;;;;;;;;;;5.80;99.90;;;;;;4992464;28;19967;-69
2021/11/29 14:21:38;;;;;;;;;;;5.80;99.90;;;;;;4995042;28;19914;-70
2021/11/29 14:24:07;;;;;;;;;;;5.80;99.90;;;;;;4997341;28;20297;-70
2021/11/29 14:26:38;;;;;;;;;;;5.80;99.90;;;;;;4998503;28;19910;-73
2021/11/29 14:29:06;;;;;;;;;;;5.80;99.90;;;;;;5013065;28;19917;-72